Seago Piraeus — OXVD2 — position and weather

sailwx.info

Track history (hours):
 
Tides and Currents Weather Stations Pressure Air Temp Water Temp Dewpoint Dewpoint Depression Visibility Wind Speed Wind Dir Waves Ship Positions

Seago Piraeus

Last reported at 2015-Sep-05 00:28 UTC. Time now 2015-Sep-05 01:06 UTC.
Position N 36°27' E 016°47'.

Length 294 m; draft 12.3 m.

Type: Ship (hazmat cat A). MMSI: 219117000.

Date/timePositionNaut miles runAvg speedWind from/ knotsBaromVisibWave heightAir tempDewpointWater temp
2015-Sep-05 00:28N 36°27' E 016°47'1516.7
2015-Sep-04 23:33N 36°27' E 016°28'1616.5
2015-Sep-04 22:33N 36°28' E 016°07'1616.2
2015-Sep-04 21:34N 36°28' E 015°47'1716.5
2015-Sep-04 20:33N 36°28' E 015°27'1716.6
2015-Sep-04 19:33N 36°29' E 015°06'1716.8
2015-Sep-04 18:33N 36°29' E 014°45'1716.6
2015-Sep-04 17:33N 36°33' E 014°25'1616.4
2015-Sep-04 16:33N 36°37' E 014°05'1716.5
2015-Sep-04 15:33N 36°42' E 013°46'1616.6
2015-Sep-04 14:33N 36°47' E 013°26'1716.8
2015-Sep-04 13:33N 36°52' E 013°06'1717.2
2015-Sep-04 12:33N 36°57' E 012°45'1716.8
2015-Sep-04 11:33N 37°02' E 012°25'1716.8
2015-Sep-04 10:33N 37°07' E 012°05'1716.7
2015-Sep-04 09:34N 37°12' E 011°45'1616.4
2015-Sep-04 08:34N 37°17' E 011°26'1616.0
2015-Sep-04 07:33N 37°23' E 011°07'1615.8
2015-Sep-04 06:33N 37°28' E 010°48'1815.7
2015-Sep-04 05:25N 37°32' E 010°26'6015.7
2015-Sep-04 01:33N 37°43' E 009°11'1616.0
2015-Sep-04 00:32N 37°45' E 008°51'1615.9
2015-Sep-03 23:33N 37°48' E 008°31'1712.7
2015-Sep-03 22:11N 37°50' E 008°09'1 0.7
2015-Sep-03 21:17N 37°51' E 008°10'3 0.9
2015-Sep-03 18:08N 37°53' E 008°12'2 0.8
2015-Sep-03 15:33N 37°54' E 008°14'1 0.8
2015-Sep-03 14:33N 37°55' E 008°14'1 0.7
2015-Sep-03 13:33N 37°56' E 008°14'1 0.6
2015-Sep-03 12:22N 37°57' E 008°14'23013.4
2015-Sep-02 19:08N 38°51' E 003°29'914.6
2015-Sep-02 18:33N 38°53' E 003°18'1414.6
2015-Sep-02 17:33N 38°56' E 003°00'1414.3
2015-Sep-02 16:33N 38°59' E 002°42'1414.1
2015-Sep-02 15:33N 39°03' E 002°25'1414.2
2015-Sep-02 14:34N 39°07' E 002°07'1413.9
2015-Sep-02 13:33N 39°09' E 001°49'1414.0
2015-Sep-02 12:33N 39°13' E 001°32'1514.3
2015-Sep-02 11:32N 39°15' E 001°13'1414.1
2015-Sep-02 10:32N 39°16' E 000°55'5714.4
2015-Sep-02 06:33N 39°25' W 000°18'1 1.4
2015-Sep-02 05:33N 39°26' W 000°19'0 0.0
2015-Sep-02 04:33N 39°26' W 000°19'0 0.0
2015-Sep-02 03:33N 39°26' W 000°19'0 0.0
2015-Sep-02 02:33N 39°26' W 000°19'0 0.0
2015-Sep-02 01:33N 39°26' W 000°19'0 0.0
2015-Sep-02 00:33N 39°26' W 000°19'0 0.0
2015-Sep-01 23:33N 39°26' W 000°19'0 0.0
2015-Sep-01 22:33N 39°26' W 000°19'0 0.0
2015-Sep-01 21:33N 39°26' W 000°19'0 0.0
2015-Sep-01 20:33N 39°26' W 000°19'0 0.0
2015-Sep-01 19:33N 39°26' W 000°19'0 0.0
2015-Sep-01 18:33N 39°26' W 000°19'0 0.0
2015-Sep-01 17:33N 39°26' W 000°19'0 0.0
2015-Sep-01 16:33N 39°26' W 000°19'0 0.0
2015-Sep-01 15:33N 39°26' W 000°19'0 0.0
2015-Sep-01 14:33N 39°26' W 000°19'0 0.0
2015-Sep-01 13:33N 39°26' W 000°19'0 0.0
2015-Sep-01 12:31N 39°26' W 000°19'5 5.0
2015-Sep-01 11:33N 39°24' W 000°14'1 1.5
2015-Sep-01 10:33N 39°22' W 000°13'4615.0
2015-Sep-01 07:30N 38°47' E 000°24'7313.6
2015-Sep-01 02:09N 37°44' W 000°22'914.2
2015-Sep-01 01:33N 37°36' W 000°28'1413.9
2015-Sep-01 00:32N 37°26' W 000°41'1414.0
2015-Aug-31 23:30N 37°17' W 000°55'7514.3
2015-Aug-31 18:17N 36°27' W 002°04'1014.3
2015-Aug-31 17:33N 36°22' W 002°16'1514.7
2015-Aug-31 16:33N 36°20' W 002°34'1514.5
2015-Aug-31 15:30N 36°18' W 002°53'23814.9
2015-Aug-30 23:30N 36°14' W 007°47'1514.9
2015-Aug-30 22:30N 36°18' W 008°05'1714.6
2015-Aug-30 21:22N 36°22' W 008°25'1114.3
2015-Aug-30 20:34N 36°26' W 008°38'1414.2
2015-Aug-30 19:33N 36°29' W 008°55'1514.5
2015-Aug-30 18:33N 36°33' W 009°13'1414.5
2015-Aug-30 17:33N 36°42' W 009°27'1414.2
2015-Aug-30 16:33N 36°55' W 009°35'1514.7
2015-Aug-30 15:31N 37°09' W 009°40'1714.5
2015-Aug-30 14:20N 37°26' W 009°46'1114.0
2015-Aug-30 13:33N 37°37' W 009°47'1414.1
2015-Aug-30 12:33N 37°51' W 009°51'1413.9
2015-Aug-30 11:30N 38°05' W 009°56'1314.1
2015-Aug-30 10:33N 38°18' W 010°00'1414.4
2015-Aug-30 09:33N 38°32' W 010°04'1514.5
2015-Aug-30 08:33N 38°46' W 010°06'1414.3
2015-Aug-30 07:33N 39°00' W 010°06'1414.5
2015-Aug-30 06:34N 39°15' W 010°06'1413.9
2015-Aug-30 05:33N 39°29' W 010°07'2014.2
2015-Aug-30 04:06N 39°49' W 010°07'814.3
2015-Aug-30 03:33N 39°57' W 010°07'1414.1
2015-Aug-30 02:33N 40°11' W 010°06'1414.1
2015-Aug-30 01:33N 40°25' W 010°07'1414.3
2015-Aug-30 00:33N 40°40' W 010°07'1514.7
2015-Aug-29 23:32N 40°55' W 010°07'1514.9
2015-Aug-29 22:33N 41°09' W 010°07'1714.8
2015-Aug-29 21:25N 41°26' W 010°07'1314.9
2015-Aug-29 20:32N 41°39' W 010°07'1914.7
2015-Aug-29 19:14N 41°58' W 010°06'59312.8
2015-Aug-27 21:05N 50°09' W 002°07'2810.9
2015-Aug-27 18:31N 50°16' W 001°25'10 9.6
2015-Aug-27 17:28N 50°19' W 001°10'1310.4
2015-Aug-27 16:10N 50°22' W 000°49'711.8
2015-Aug-27 15:33N 50°23' W 000°38'24 6.1
2015-Aug-27 11:33N 50°32' W 000°02'1312.6
2015-Aug-27 10:34N 50°35' E 000°17'1212.0
2015-Aug-27 09:34N 50°38' E 000°35'1211.5
2015-Aug-27 08:34N 50°45' E 000°50'1111.1
2015-Aug-27 07:34N 50°51' E 001°04'1111.1
2015-Aug-27 06:33N 50°59' E 001°17'1110.5
2015-Aug-27 05:33N 51°06' E 001°30'1313.0
2015-Aug-27 04:33N 51°14' E 001°46'1313.3
2015-Aug-27 03:33N 51°24' E 001°59'1212.1
2015-Aug-27 02:33N 51°20' E 002°18'1312.0
2015-Aug-27 01:26N 51°23' E 002°39'1112.3
2015-Aug-27 00:34N 51°23' E 002°56'1716.8
2015-Aug-26 23:33N 51°25' E 003°23'1413.6
2015-Aug-26 22:34N 51°22' E 003°44'1010.4
2015-Aug-26 21:33N 51°26' E 003°60'9 8.6
2015-Aug-26 20:33N 51°24' E 004°13'6 5.9
2015-Aug-26 19:33N 51°18' E 004°16'0 0.0
2015-Aug-26 18:30N 51°18' E 004°16'0 0.0
2015-Aug-26 17:33N 51°18' E 004°16'0 0.0
2015-Aug-26 16:33N 51°18' E 004°16'0 0.0
2015-Aug-26 15:30N 51°18' E 004°16'0 0.0
2015-Aug-26 14:33N 51°18' E 004°16'0 0.0
2015-Aug-26 13:33N 51°18' E 004°16'0 0.0
2015-Aug-26 12:33N 51°18' E 004°16'0 0.0
2015-Aug-26 11:33N 51°18' E 004°16'0 0.0
2015-Aug-26 10:33N 51°18' E 004°16'0 0.0
2015-Aug-26 09:33N 51°18' E 004°16'0 0.0
2015-Aug-26 08:33N 51°18' E 004°16'0 0.0
2015-Aug-26 07:33N 51°18' E 004°16'0 0.0
2015-Aug-26 06:33N 51°18' E 004°16'0 0.0
2015-Aug-26 05:33N 51°18' E 004°16'0 0.0
2015-Aug-26 04:33N 51°18' E 004°16'0 0.0
2015-Aug-26 03:33N 51°18' E 004°16'0 0.0
2015-Aug-26 02:30N 51°18' E 004°16'0 0.0
2015-Aug-26 01:33N 51°18' E 004°16'3 3.1
2015-Aug-26 00:33N 51°21' E 004°15'  
Track history (hours):
 
Tides and Currents Weather Stations Pressure Air Temp Water Temp Dewpoint Dewpoint Depression Visibility Wind Speed Wind Dir Waves Ship Positions

Seago Piraeus

Last reported at 2015-Sep-05 00:28 UTC. Time now 2015-Sep-05 01:06 UTC.
Position N 36°27' E 016°47'.

Length 294 m; draft 12.3 m.

Type: Ship (hazmat cat A). MMSI: 219117000.

Date/timePositionNaut miles runAvg speedWind from/ knotsBaromVisibWave heightAir tempDewpointWater temp
2015-Sep-05 00:28N 36°27' E 016°47'1516.7
2015-Sep-04 23:33N 36°27' E 016°28'1616.5
2015-Sep-04 22:33N 36°28' E 016°07'1616.2
2015-Sep-04 21:34N 36°28' E 015°47'1716.5
2015-Sep-04 20:33N 36°28' E 015°27'1716.6
2015-Sep-04 19:33N 36°29' E 015°06'1716.8
2015-Sep-04 18:33N 36°29' E 014°45'1716.6
2015-Sep-04 17:33N 36°33' E 014°25'1616.4
2015-Sep-04 16:33N 36°37' E 014°05'1716.5
2015-Sep-04 15:33N 36°42' E 013°46'1616.6
2015-Sep-04 14:33N 36°47' E 013°26'1716.8
2015-Sep-04 13:33N 36°52' E 013°06'1717.2
2015-Sep-04 12:33N 36°57' E 012°45'1716.8
2015-Sep-04 11:33N 37°02' E 012°25'1716.8
2015-Sep-04 10:33N 37°07' E 012°05'1716.7
2015-Sep-04 09:34N 37°12' E 011°45'1616.4
2015-Sep-04 08:34N 37°17' E 011°26'1616.0
2015-Sep-04 07:33N 37°23' E 011°07'1615.8
2015-Sep-04 06:33N 37°28' E 010°48'1815.7
2015-Sep-04 05:25N 37°32' E 010°26'6015.7
2015-Sep-04 01:33N 37°43' E 009°11'1616.0
2015-Sep-04 00:32N 37°45' E 008°51'1615.9
2015-Sep-03 23:33N 37°48' E 008°31'1712.7
2015-Sep-03 22:11N 37°50' E 008°09'1 0.7
2015-Sep-03 21:17N 37°51' E 008°10'3 0.9
2015-Sep-03 18:08N 37°53' E 008°12'2 0.8
2015-Sep-03 15:33N 37°54' E 008°14'1 0.8
2015-Sep-03 14:33N 37°55' E 008°14'1 0.7
2015-Sep-03 13:33N 37°56' E 008°14'1 0.6
2015-Sep-03 12:22N 37°57' E 008°14'23013.4
2015-Sep-02 19:08N 38°51' E 003°29'914.6
2015-Sep-02 18:33N 38°53' E 003°18'1414.6
2015-Sep-02 17:33N 38°56' E 003°00'1414.3
2015-Sep-02 16:33N 38°59' E 002°42'1414.1
2015-Sep-02 15:33N 39°03' E 002°25'1414.2
2015-Sep-02 14:34N 39°07' E 002°07'1413.9
2015-Sep-02 13:33N 39°09' E 001°49'1414.0
2015-Sep-02 12:33N 39°13' E 001°32'1514.3
2015-Sep-02 11:32N 39°15' E 001°13'1414.1
2015-Sep-02 10:32N 39°16' E 000°55'5714.4
2015-Sep-02 06:33N 39°25' W 000°18'1 1.4
2015-Sep-02 05:33N 39°26' W 000°19'0 0.0
2015-Sep-02 04:33N 39°26' W 000°19'0 0.0
2015-Sep-02 03:33N 39°26' W 000°19'0 0.0
2015-Sep-02 02:33N 39°26' W 000°19'0 0.0
2015-Sep-02 01:33N 39°26' W 000°19'0 0.0
2015-Sep-02 00:33N 39°26' W 000°19'0 0.0
2015-Sep-01 23:33N 39°26' W 000°19'0 0.0
2015-Sep-01 22:33N 39°26' W 000°19'0 0.0
2015-Sep-01 21:33N 39°26' W 000°19'0 0.0
2015-Sep-01 20:33N 39°26' W 000°19'0 0.0
2015-Sep-01 19:33N 39°26' W 000°19'0 0.0
2015-Sep-01 18:33N 39°26' W 000°19'0 0.0
2015-Sep-01 17:33N 39°26' W 000°19'0 0.0
2015-Sep-01 16:33N 39°26' W 000°19'0 0.0
2015-Sep-01 15:33N 39°26' W 000°19'0 0.0
2015-Sep-01 14:33N 39°26' W 000°19'0 0.0
2015-Sep-01 13:33N 39°26' W 000°19'0 0.0
2015-Sep-01 12:31N 39°26' W 000°19'5 5.0
2015-Sep-01 11:33N 39°24' W 000°14'1 1.5
2015-Sep-01 10:33N 39°22' W 000°13'4615.0
2015-Sep-01 07:30N 38°47' E 000°24'7313.6
2015-Sep-01 02:09N 37°44' W 000°22'914.2
2015-Sep-01 01:33N 37°36' W 000°28'1413.9
2015-Sep-01 00:32N 37°26' W 000°41'1414.0
2015-Aug-31 23:30N 37°17' W 000°55'7514.3
2015-Aug-31 18:17N 36°27' W 002°04'1014.3
2015-Aug-31 17:33N 36°22' W 002°16'1514.7
2015-Aug-31 16:33N 36°20' W 002°34'1514.5
2015-Aug-31 15:30N 36°18' W 002°53'23814.9
2015-Aug-30 23:30N 36°14' W 007°47'1514.9
2015-Aug-30 22:30N 36°18' W 008°05'1714.6
2015-Aug-30 21:22N 36°22' W 008°25'1114.3
2015-Aug-30 20:34N 36°26' W 008°38'1414.2
2015-Aug-30 19:33N 36°29' W 008°55'1514.5
2015-Aug-30 18:33N 36°33' W 009°13'1414.5
2015-Aug-30 17:33N 36°42' W 009°27'1414.2
2015-Aug-30 16:33N 36°55' W 009°35'1514.7
2015-Aug-30 15:31N 37°09' W 009°40'1714.5
2015-Aug-30 14:20N 37°26' W 009°46'1114.0
2015-Aug-30 13:33N 37°37' W 009°47'1414.1
2015-Aug-30 12:33N 37°51' W 009°51'1413.9
2015-Aug-30 11:30N 38°05' W 009°56'1314.1
2015-Aug-30 10:33N 38°18' W 010°00'1414.4
2015-Aug-30 09:33N 38°32' W 010°04'1514.5
2015-Aug-30 08:33N 38°46' W 010°06'1414.3
2015-Aug-30 07:33N 39°00' W 010°06'1414.5
2015-Aug-30 06:34N 39°15' W 010°06'1413.9
2015-Aug-30 05:33N 39°29' W 010°07'2014.2
2015-Aug-30 04:06N 39°49' W 010°07'814.3
2015-Aug-30 03:33N 39°57' W 010°07'1414.1
2015-Aug-30 02:33N 40°11' W 010°06'1414.1
2015-Aug-30 01:33N 40°25' W 010°07'1414.3
2015-Aug-30 00:33N 40°40' W 010°07'1514.7
2015-Aug-29 23:32N 40°55' W 010°07'1514.9
2015-Aug-29 22:33N 41°09' W 010°07'1714.8
2015-Aug-29 21:25N 41°26' W 010°07'1314.9
2015-Aug-29 20:32N 41°39' W 010°07'1914.7
2015-Aug-29 19:14N 41°58' W 010°06'59312.8
2015-Aug-27 21:05N 50°09' W 002°07'2810.9
2015-Aug-27 18:31N 50°16' W 001°25'10 9.6
2015-Aug-27 17:28N 50°19' W 001°10'1310.4
2015-Aug-27 16:10N 50°22' W 000°49'711.8
2015-Aug-27 15:33N 50°23' W 000°38'24 6.1
2015-Aug-27 11:33N 50°32' W 000°02'1312.6
2015-Aug-27 10:34N 50°35' E 000°17'1212.0
2015-Aug-27 09:34N 50°38' E 000°35'1211.5
2015-Aug-27 08:34N 50°45' E 000°50'1111.1
2015-Aug-27 07:34N 50°51' E 001°04'1111.1
2015-Aug-27 06:33N 50°59' E 001°17'1110.5
2015-Aug-27 05:33N 51°06' E 001°30'1313.0
2015-Aug-27 04:33N 51°14' E 001°46'1313.3
2015-Aug-27 03:33N 51°24' E 001°59'1212.1
2015-Aug-27 02:33N 51°20' E 002°18'1312.0
2015-Aug-27 01:26N 51°23' E 002°39'1112.3
2015-Aug-27 00:34N 51°23' E 002°56'1716.8
2015-Aug-26 23:33N 51°25' E 003°23'1413.6
2015-Aug-26 22:34N 51°22' E 003°44'1010.4
2015-Aug-26 21:33N 51°26' E 003°60'9 8.6
2015-Aug-26 20:33N 51°24' E 004°13'6 5.9
2015-Aug-26 19:33N 51°18' E 004°16'0 0.0
2015-Aug-26 18:30N 51°18' E 004°16'0 0.0
2015-Aug-26 17:33N 51°18' E 004°16'0 0.0
2015-Aug-26 16:33N 51°18' E 004°16'0 0.0
2015-Aug-26 15:30N 51°18' E 004°16'0 0.0
2015-Aug-26 14:33N 51°18' E 004°16'0 0.0
2015-Aug-26 13:33N 51°18' E 004°16'0 0.0
2015-Aug-26 12:33N 51°18' E 004°16'0 0.0
2015-Aug-26 11:33N 51°18' E 004°16'0 0.0
2015-Aug-26 10:33N 51°18' E 004°16'0 0.0
2015-Aug-26 09:33N 51°18' E 004°16'0 0.0
2015-Aug-26 08:33N 51°18' E 004°16'0 0.0
2015-Aug-26 07:33N 51°18' E 004°16'0 0.0
2015-Aug-26 06:33N 51°18' E 004°16'0 0.0
2015-Aug-26 05:33N 51°18' E 004°16'0 0.0
2015-Aug-26 04:33N 51°18' E 004°16'0 0.0
2015-Aug-26 03:33N 51°18' E 004°16'0 0.0
2015-Aug-26 02:30N 51°18' E 004°16'0 0.0
2015-Aug-26 01:33N 51°18' E 004°16'3 3.1
2015-Aug-26 00:33N 51°21' E 004°15'  

Dump ship's entire track history